Time;durP1;ratioP1;P1;durP2;ratioP2;P2;SDS_P1;SDS_P2;PMS_P1;PMS_P2;Temp;Humidity;BMP_temperature;BMP_pressure;BME280_temperature;BME280_humidity;BME280_pressure;Samples;Min_cycle;Max_cycle;Signal;HPM_P1;HPM_P2
2022/03/03 00:01:39;;;;;;;136.88;58.50;;;4.70;99.90;;;;;;5016786;28;20028;-65
2022/03/03 00:04:06;;;;;;;141.20;58.92;;;4.70;99.90;;;;;;5023234;28;20034;-64
2022/03/03 00:06:33;;;;;;;137.18;59.97;;;4.60;99.90;;;;;;5014919;28;20033;-64
2022/03/03 00:08:59;;;;;;;130.30;57.22;;;4.60;99.90;;;;;;5023893;28;20392;-65
2022/03/03 00:11:25;;;;;;;137.15;58.30;;;4.60;99.90;;;;;;5016818;28;20026;-64
2022/03/03 00:13:51;;;;;;;135.48;57.17;;;4.70;99.90;;;;;;5008217;28;20392;-65
2022/03/03 00:16:16;;;;;;;131.55;57.90;;;4.60;99.90;;;;;;5016872;28;20136;-65
2022/03/03 00:18:42;;;;;;;127.05;57.70;;;4.60;99.90;;;;;;5023522;28;20515;-65
2022/03/03 00:21:08;;;;;;;139.68;58.05;;;4.50;99.90;;;;;;5016907;28;20104;-65
2022/03/03 00:23:34;;;;;;;141.57;61.22;;;4.50;99.90;;;;;;5008546;28;20157;-65
2022/03/03 00:25:59;;;;;;;139.63;62.38;;;4.60;99.90;;;;;;5015574;28;20069;-65
2022/03/03 00:28:26;;;;;;;144.40;62.58;;;4.60;99.90;;;;;;5025046;28;20348;-66
2022/03/03 00:30:51;;;;;;;146.70;62.05;;;4.60;99.90;;;;;;5019139;28;20500;-65
2022/03/03 00:33:17;;;;;;;147.98;63.83;;;4.50;99.90;;;;;;5026269;28;20163;-65
2022/03/03 00:35:43;;;;;;;151.52;65.55;;;4.50;99.90;;;;;;5020866;28;20052;-65
2022/03/03 00:38:09;;;;;;;158.35;67.20;;;4.50;99.90;;;;;;5025133;28;20496;-65
2022/03/03 00:40:35;;;;;;;151.00;68.32;;;4.50;99.90;;;;;;5018071;28;20029;-65
2022/03/03 00:43:00;;;;;;;157.57;69.22;;;4.60;99.90;;;;;;5023577;28;20033;-65
2022/03/03 00:45:26;;;;;;;148.23;61.35;;;4.60;99.90;;;;;;5022071;28;20037;-65
2022/03/03 00:47:52;;;;;;;154.30;65.32;;;4.60;99.90;;;;;;5022487;28;20026;-65
2022/03/03 00:50:18;;;;;;;154.48;65.18;;;4.50;99.90;;;;;;5022868;28;20108;-66
2022/03/03 00:52:43;;;;;;;161.82;67.00;;;4.30;99.90;;;;;;5017088;28;20025;-65
2022/03/03 00:55:09;;;;;;;156.05;64.40;;;4.20;99.90;;;;;;5014939;28;20083;-65
2022/03/03 00:57:35;;;;;;;152.07;65.70;;;4.20;99.90;;;;;;5022946;28;20021;-65
2022/03/03 01:00:01;;;;;;;152.52;64.60;;;4.20;99.90;;;;;;5021280;28;20029;-64
2022/03/03 01:02:26;;;;;;;150.77;62.10;;;4.20;99.90;;;;;;5023126;28;20024;-65
2022/03/03 01:04:52;;;;;;;145.35;58.17;;;4.20;99.90;;;;;;5022482;28;20454;-65
2022/03/03 01:07:18;;;;;;;140.43;59.22;;;4.20;99.90;;;;;;5022948;28;20418;-65
2022/03/03 01:09:43;;;;;;;142.95;58.20;;;4.10;99.90;;;;;;5023154;28;20109;-65
2022/03/03 01:12:09;;;;;;;142.68;58.20;;;4.10;99.90;;;;;;5024363;28;20432;-65
2022/03/03 01:14:35;;;;;;;133.38;56.28;;;4.00;99.90;;;;;;5024457;28;20100;-65
2022/03/03 01:17:00;;;;;;;140.38;58.10;;;4.10;99.90;;;;;;5022779;28;20086;-65
2022/03/03 01:19:26;;;;;;;131.27;55.70;;;4.20;99.90;;;;;;5025153;28;20242;-64
2022/03/03 01:21:52;;;;;;;119.70;51.15;;;4.10;99.90;;;;;;5023002;28;20083;-65
2022/03/03 01:24:17;;;;;;;122.18;53.13;;;3.90;99.90;;;;;;5025840;28;20104;-65
2022/03/03 01:26:43;;;;;;;119.90;52.03;;;3.90;99.90;;;;;;5022402;28;20029;-65
2022/03/03 01:29:09;;;;;;;123.82;52.90;;;3.80;99.90;;;;;;5025573;28;20041;-65
2022/03/03 01:31:35;;;;;;;125.72;53.88;;;3.80;99.90;;;;;;5019721;28;20483;-63
2022/03/03 01:34:00;;;;;;;124.88;54.80;;;3.60;99.90;;;;;;5022827;28;20467;-63
2022/03/03 01:36:26;;;;;;;127.45;53.63;;;3.60;99.90;;;;;;5022882;28;20040;-66
2022/03/03 01:38:52;;;;;;;129.27;54.60;;;3.70;99.90;;;;;;5019241;28;20026;-66
2022/03/03 01:41:18;;;;;;;136.05;55.72;;;3.70;99.90;;;;;;5021844;28;20029;-63
2022/03/03 01:43:43;;;;;;;134.32;55.38;;;3.70;99.90;;;;;;5026479;28;20038;-63
2022/03/03 01:46:09;;;;;;;127.57;53.70;;;3.80;99.90;;;;;;5021955;28;20028;-63
2022/03/03 01:48:35;;;;;;;135.05;55.38;;;3.80;99.90;;;;;;5024398;28;20037;-63
2022/03/03 01:51:00;;;;;;;130.77;53.70;;;3.80;99.90;;;;;;5022381;28;20399;-64
2022/03/03 01:53:26;;;;;;;132.30;53.67;;;3.70;99.90;;;;;;5017331;28;20033;-64
2022/03/03 01:55:52;;;;;;;124.05;53.53;;;3.70;99.90;;;;;;5018964;28;20051;-64
2022/03/03 01:58:18;;;;;;;142.27;54.10;;;3.60;99.90;;;;;;5023041;28;20029;-64
2022/03/03 02:00:44;;;;;;;127.43;54.63;;;3.60;99.90;;;;;;5019930;28;20026;-64
2022/03/03 02:03:10;;;;;;;125.57;54.70;;;3.60;99.90;;;;;;5030484;28;20498;-64
2022/03/03 02:05:37;;;;;;;127.38;51.53;;;3.60;99.90;;;;;;5018002;28;20036;-64
2022/03/03 02:08:03;;;;;;;127.97;55.20;;;3.60;99.90;;;;;;4991174;28;20050;-64
2022/03/03 02:10:31;;;;;;;130.35;54.53;;;3.50;99.90;;;;;;5015155;28;20369;-64
2022/03/03 02:12:57;;;;;;;122.25;54.17;;;3.50;99.90;;;;;;5029643;28;20393;-64
2022/03/03 02:15:22;;;;;;;132.35;54.20;;;3.60;99.90;;;;;;5020242;28;20026;-64
2022/03/03 02:17:48;;;;;;;113.90;51.35;;;3.80;99.90;;;;;;5028167;28;20139;-64
2022/03/03 02:20:23;;;;;;;108.85;48.70;;;3.80;99.90;;;;;;5023456;28;20026;-64
2022/03/03 02:22:51;;;;;;;106.10;47.55;;;3.70;99.90;;;;;;5028417;28;20128;-64
2022/03/03 02:25:17;;;;;;;110.05;47.20;;;3.60;99.90;;;;;;5021293;28;20021;-65
2022/03/03 02:27:44;;;;;;;110.10;48.13;;;3.40;99.90;;;;;;5017776;28;20111;-63
2022/03/03 02:30:11;;;;;;;115.43;48.85;;;3.40;99.90;;;;;;5022087;28;20052;-65
2022/03/03 02:32:38;;;;;;;113.55;49.53;;;3.40;99.90;;;;;;5015965;28;20045;-65
2022/03/03 02:35:04;;;;;;;124.32;51.70;;;3.40;99.90;;;;;;5024845;28;20360;-65
2022/03/03 02:37:40;;;;;;;114.15;48.55;;;3.30;99.90;;;;;;5020552;28;20491;-65
2022/03/03 02:40:09;;;;;;;114.70;48.28;;;3.30;99.90;;;;;;5009977;28;20042;-63
2022/03/03 02:42:35;;;;;;;112.45;48.60;;;3.40;99.90;;;;;;5016783;28;20112;-65
2022/03/03 02:45:03;;;;;;;98.70;45.22;;;3.40;99.90;;;;;;5016817;28;20108;-65
2022/03/03 02:47:29;;;;;;;104.18;46.42;;;3.30;99.90;;;;;;5021102;28;20044;-65
2022/03/03 02:49:55;;;;;;;96.05;41.28;;;3.20;99.90;;;;;;5021853;28;20029;-65
2022/03/03 02:52:20;;;;;;;96.03;44.00;;;3.20;99.90;;;;;;5022039;28;20150;-65
2022/03/03 02:54:46;;;;;;;103.32;43.97;;;3.30;99.90;;;;;;5020633;28;20040;-63
2022/03/03 02:59:57;;;;;;;103.03;43.47;;;3.30;99.90;;;;;;5021431;28;20087;-65
2022/03/03 03:02:22;;;;;;;96.28;42.95;;;3.40;99.90;;;;;;5023802;28;20054;-62
2022/03/03 03:04:48;;;;;;;103.53;45.05;;;3.30;99.90;;;;;;5020111;28;20075;-64
2022/03/03 03:07:14;;;;;;;94.38;42.80;;;3.30;99.90;;;;;;5015935;28;20026;-62
2022/03/03 03:09:39;;;;;;;99.07;42.55;;;3.30;99.90;;;;;;5017752;28;20400;-62
2022/03/03 03:12:05;;;;;;;95.45;41.83;;;3.30;99.90;;;;;;5023491;28;20045;-63
2022/03/03 03:14:31;;;;;;;99.28;42.10;;;3.20;99.90;;;;;;5019957;28;20491;-63
2022/03/03 03:16:57;;;;;;;105.28;45.67;;;3.00;99.90;;;;;;5017903;28;20392;-65
2022/03/03 03:19:22;;;;;;;107.15;46.47;;;2.70;99.90;;;;;;5017431;28;20033;-65
2022/03/03 03:21:48;;;;;;;115.15;45.05;;;2.50;99.90;;;;;;5026336;28;20036;-65
2022/03/03 03:24:14;;;;;;;113.47;46.78;;;2.50;99.90;;;;;;5016890;28;20083;-65
2022/03/03 03:26:40;;;;;;;107.20;44.60;;;2.40;99.90;;;;;;5020166;28;20391;-65
2022/03/03 03:29:05;;;;;;;103.85;44.25;;;2.60;99.90;;;;;;5018312;28;20075;-65
2022/03/03 03:31:31;;;;;;;94.57;41.28;;;2.80;99.90;;;;;;5015510;28;20129;-66
2022/03/03 03:33:57;;;;;;;100.30;41.88;;;2.80;99.90;;;;;;5019522;28;20037;-63
2022/03/03 03:36:22;;;;;;;105.68;45.42;;;2.90;99.90;;;;;;5020170;28;20052;-63
2022/03/03 03:38:48;;;;;;;105.70;44.22;;;3.00;99.90;;;;;;5025209;28;20107;-63
2022/03/03 03:41:14;;;;;;;92.03;41.55;;;3.00;99.90;;;;;;5020717;28;20097;-63
2022/03/03 03:43:40;;;;;;;97.25;42.33;;;3.00;99.90;;;;;;5024714;28;20520;-63
2022/03/03 03:46:05;;;;;;;97.20;42.38;;;3.00;99.90;;;;;;5020130;28;20033;-63
2022/03/03 03:48:31;;;;;;;93.07;41.55;;;3.10;99.90;;;;;;5025746;28;20087;-65
2022/03/03 03:50:57;;;;;;;93.35;41.03;;;3.10;99.90;;;;;;5020172;28;20440;-64
2022/03/03 03:53:23;;;;;;;96.90;40.95;;;3.10;99.90;;;;;;5015648;28;20492;-64
2022/03/03 03:55:49;;;;;;;97.65;41.58;;;3.00;99.90;;;;;;5018233;28;20022;-64
2022/03/03 03:58:15;;;;;;;93.38;40.33;;;2.90;99.90;;;;;;5028972;28;20025;-64
2022/03/03 04:00:41;;;;;;;100.90;40.92;;;2.90;99.90;;;;;;5015564;28;20476;-64
2022/03/03 04:03:07;;;;;;;98.63;41.65;;;2.70;99.90;;;;;;5021674;28;20026;-64
2022/03/03 04:05:32;;;;;;;93.95;40.75;;;2.80;99.90;;;;;;5019935;28;20033;-64
2022/03/03 04:07:58;;;;;;;89.95;38.03;;;2.80;99.90;;;;;;5032063;28;20030;-64
2022/03/03 04:10:24;;;;;;;92.22;38.92;;;2.80;99.90;;;;;;5022781;28;20053;-64
2022/03/03 04:12:49;;;;;;;86.47;36.30;;;2.90;99.90;;;;;;5030888;28;20032;-64
2022/03/03 04:15:15;;;;;;;76.55;33.70;;;2.90;99.90;;;;;;5023458;28;20026;-64
2022/03/03 04:17:42;;;;;;;73.78;33.80;;;2.80;99.90;;;;;;5025128;28;20454;-63
2022/03/03 04:20:08;;;;;;;91.45;40.22;;;2.60;99.90;;;;;;5025345;28;20476;-64
2022/03/03 04:22:34;;;;;;;83.28;37.28;;;2.50;99.90;;;;;;5028865;28;20022;-63
2022/03/03 04:25:00;;;;;;;85.18;38.08;;;2.40;99.90;;;;;;5019203;28;20103;-63
2022/03/03 04:27:26;;;;;;;84.03;36.00;;;2.40;99.90;;;;;;5023411;28;20033;-63
2022/03/03 04:29:52;;;;;;;85.07;35.33;;;2.30;99.90;;;;;;5023792;28;20025;-65
2022/03/03 04:32:18;;;;;;;83.25;34.97;;;2.40;99.90;;;;;;5030178;28;20383;-65
2022/03/03 04:34:44;;;;;;;75.97;33.72;;;2.40;99.90;;;;;;5021804;28;20045;-65
2022/03/03 04:37:10;;;;;;;79.30;34.13;;;2.40;99.90;;;;;;5018623;28;20116;-65
2022/03/03 04:39:36;;;;;;;86.85;36.40;;;2.50;99.90;;;;;;5020094;28;20037;-65
2022/03/03 04:42:02;;;;;;;91.38;35.72;;;2.50;99.90;;;;;;5011594;28;20038;-65
2022/03/03 04:44:28;;;;;;;76.47;34.05;;;2.60;99.90;;;;;;5024445;28;20045;-65
2022/03/03 04:46:54;;;;;;;82.25;35.22;;;2.50;99.90;;;;;;5020422;28;20032;-64
2022/03/03 04:49:20;;;;;;;78.00;35.05;;;2.50;99.90;;;;;;5020001;28;20022;-64
2022/03/03 04:51:45;;;;;;;82.10;36.15;;;2.50;99.90;;;;;;5028757;28;20030;-64
2022/03/03 04:54:11;;;;;;;84.32;35.63;;;2.60;99.90;;;;;;5022050;28;20098;-64
2022/03/03 04:56:38;;;;;;;79.38;35.22;;;2.70;99.90;;;;;;5022988;28;20038;-64
2022/03/03 04:59:05;;;;;;;82.55;35.47;;;2.70;99.90;;;;;;5020511;28;20037;-64
2022/03/03 05:01:31;;;;;;;78.30;34.30;;;2.70;99.90;;;;;;5026986;28;20033;-65
2022/03/03 05:03:57;;;;;;;78.80;35.95;;;2.60;99.90;;;;;;5022414;28;20095;-65
2022/03/03 05:06:22;;;;;;;80.13;34.15;;;2.60;99.90;;;;;;5022755;28;20097;-65
2022/03/03 05:08:48;;;;;;;76.43;33.78;;;2.60;99.90;;;;;;5023168;28;20119;-65
2022/03/03 05:11:14;;;;;;;79.93;35.20;;;2.60;99.90;;;;;;5024985;28;20152;-64
2022/03/03 05:13:39;;;;;;;79.20;32.13;;;2.50;99.90;;;;;;5023345;28;20032;-64
2022/03/03 05:16:05;;;;;;;79.68;33.50;;;2.50;99.90;;;;;;5018156;28;20033;-65
2022/03/03 05:18:31;;;;;;;76.32;34.63;;;2.60;99.90;;;;;;5016648;28;20029;-65
2022/03/03 05:20:57;;;;;;;83.70;34.92;;;2.60;99.90;;;;;;5023248;28;20040;-65
2022/03/03 05:23:23;;;;;;;83.63;35.03;;;2.50;99.90;;;;;;5026336;28;20018;-65
2022/03/03 05:25:49;;;;;;;85.40;36.80;;;2.50;99.90;;;;;;5022478;28;20029;-63
2022/03/03 05:28:16;;;;;;;76.68;34.38;;;2.50;99.90;;;;;;5026550;28;20105;-64
2022/03/03 05:30:41;;;;;;;93.18;34.33;;;2.50;99.90;;;;;;5020920;28;20499;-65
2022/03/03 05:33:07;;;;;;;83.72;35.30;;;2.30;99.90;;;;;;5018580;28;20080;-65
2022/03/03 05:35:33;;;;;;;90.78;37.22;;;2.20;99.90;;;;;;5026293;28;20714;-65
2022/03/03 05:38:01;;;;;;;84.65;36.55;;;2.10;99.90;;;;;;5020296;28;20036;-65
2022/03/03 05:40:27;;;;;;;86.03;35.72;;;2.10;99.90;;;;;;5014463;28;20072;-65
2022/03/03 05:42:53;;;;;;;85.80;37.55;;;2.00;99.90;;;;;;5018022;28;20060;-65
2022/03/03 05:45:18;;;;;;;91.28;37.53;;;1.90;99.90;;;;;;5019308;28;20467;-62
2022/03/03 05:47:45;;;;;;;93.75;37.20;;;1.90;99.90;;;;;;5019717;28;20037;-65
2022/03/03 05:50:11;;;;;;;93.90;37.08;;;2.00;99.90;;;;;;5020582;28;20613;-65
2022/03/03 05:52:37;;;;;;;93.85;37.58;;;2.00;99.90;;;;;;5013941;28;20034;-63
2022/03/03 05:55:03;;;;;;;83.03;36.55;;;1.80;99.90;;;;;;5021252;28;20083;-63
2022/03/03 05:57:35;;;;;;;83.93;36.35;;;1.90;99.90;;;;;;5025749;28;20022;-63
2022/03/03 06:00:09;;;;;;;;;;;2.00;99.90;;;;;;5022125;28;20455;-63
2022/03/03 06:02:35;;;;;;;87.40;34.08;;;1.90;99.90;;;;;;5022050;28;19909;-63
2022/03/03 06:05:03;;;;;;;97.47;37.75;;;1.90;99.90;;;;;;5022759;28;20377;-64
2022/03/03 06:07:29;;;;;;;87.90;37.38;;;2.00;99.90;;;;;;5016492;28;20036;-63
2022/03/03 06:09:56;;;;;;;95.45;36.47;;;1.90;99.90;;;;;;5021243;28;20104;-66
2022/03/03 06:12:28;;;;;;;97.05;37.67;;;1.90;99.90;;;;;;5030241;28;20114;-63
2022/03/03 06:14:57;;;;;;;88.63;34.90;;;1.90;99.90;;;;;;5020176;28;21971;-63
2022/03/03 06:17:25;;;;;;;113.95;37.25;;;1.90;99.90;;;;;;5023547;28;20036;-66
2022/03/03 06:19:52;;;;;;;175.32;40.50;;;2.00;99.90;;;;;;5011298;28;20033;-65
2022/03/03 06:22:18;;;;;;;108.93;40.47;;;2.00;99.90;;;;;;5010407;28;20389;-65
2022/03/03 06:24:44;;;;;;;92.63;38.03;;;2.00;99.90;;;;;;5009895;28;20037;-64
2022/03/03 06:27:10;;;;;;;86.82;36.88;;;2.00;99.90;;;;;;5016609;28;20034;-64
2022/03/03 06:29:38;;;;;;;87.50;35.45;;;2.10;99.90;;;;;;5025001;28;20024;-64
2022/03/03 06:32:05;;;;;;;84.72;35.78;;;2.10;99.90;;;;;;5013011;28;20078;-64
2022/03/03 06:34:30;;;;;;;78.00;33.60;;;2.20;99.90;;;;;;5021411;28;20080;-64
2022/03/03 06:36:56;;;;;;;90.00;32.60;;;2.20;99.90;;;;;;5009600;28;20038;-64
2022/03/03 06:39:22;;;;;;;74.78;33.00;;;2.30;99.90;;;;;;5009906;28;20089;-62
2022/03/03 06:41:48;;;;;;;75.20;32.42;;;2.30;99.90;;;;;;5016406;28;20049;-64
2022/03/03 06:44:14;;;;;;;76.53;32.15;;;2.40;99.90;;;;;;5017821;28;20030;-64
2022/03/03 06:46:40;;;;;;;73.95;31.10;;;2.50;99.90;;;;;;5017798;28;20026;-63
2022/03/03 06:49:06;;;;;;;70.60;30.30;;;2.40;99.90;;;;;;5021430;28;20026;-64
2022/03/03 06:51:43;;;;;;;71.75;31.45;;;2.30;99.90;;;;;;5024973;28;20559;-65
2022/03/03 06:54:14;;;;;;;76.15;30.92;;;2.30;99.90;;;;;;5016300;28;20375;-64
2022/03/03 06:57:08;;;;;;;73.18;29.55;;;2.30;99.90;;;;;;5021787;28;20046;-62
2022/03/03 06:59:37;;;;;;;81.80;33.17;;;2.30;99.90;;;;;;5025752;28;20048;-63
2022/03/03 07:02:03;;;;;;;71.95;31.98;;;2.30;99.90;;;;;;5022130;28;20119;-63
2022/03/03 07:04:29;;;;;;;73.60;31.17;;;2.40;99.90;;;;;;5013500;28;20076;-64
2022/03/03 07:06:55;;;;;;;76.82;32.17;;;2.40;99.90;;;;;;5019990;28;20026;-64
2022/03/03 07:09:21;;;;;;;82.93;32.50;;;2.50;99.90;;;;;;5024107;28;20023;-64
2022/03/03 07:11:49;;;;;;;76.03;31.40;;;2.60;99.90;;;;;;5021056;28;20250;-64
2022/03/03 07:14:15;;;;;;;75.93;31.30;;;2.50;99.90;;;;;;5014961;28;20032;-64
2022/03/03 07:17:05;;;;;;;71.32;30.58;;;2.60;99.90;;;;;;5017656;28;20029;-64
2022/03/03 07:19:45;;;;;;;72.43;29.45;;;2.40;99.90;;;;;;5013187;28;20025;-64
2022/03/03 07:22:22;;;;;;;69.75;29.80;;;2.30;99.90;;;;;;5015241;28;20106;-64
2022/03/03 07:24:58;;;;;;;73.28;29.10;;;2.40;99.90;;;;;;5013836;28;20112;-64
2022/03/03 07:27:25;;;;;;;59.50;27.48;;;2.50;99.90;;;;;;5020527;28;20472;-64
2022/03/03 07:29:59;;;;;;;59.83;27.27;;;2.40;99.90;;;;;;5029404;28;20074;-63
2022/03/03 07:32:36;;;;;;;59.25;26.63;;;2.30;99.90;;;;;;5028936;28;20136;-65
2022/03/03 07:35:10;;;;;;;58.63;24.50;;;2.40;99.90;;;;;;5028911;28;20033;-64
2022/03/03 07:37:41;;;;;;;49.20;21.40;;;2.30;99.90;;;;;;5028196;28;20032;-65
2022/03/03 07:40:10;;;;;;;51.42;22.63;;;2.20;99.90;;;;;;5033127;28;20039;-65
2022/03/03 07:42:37;;;;;;;50.60;21.08;;;2.20;99.90;;;;;;5032690;28;20073;-65
2022/03/03 07:45:05;;;;;;;52.33;20.80;;;2.30;99.90;;;;;;5032850;28;20033;-64
2022/03/03 07:47:31;;;;;;;53.22;22.27;;;2.20;99.90;;;;;;5033657;28;20072;-64
2022/03/03 07:49:57;;;;;;;50.65;21.38;;;2.30;99.90;;;;;;5032700;28;20052;-65
2022/03/03 07:52:24;;;;;;;50.97;22.10;;;2.40;99.90;;;;;;5029220;28;20025;-65
2022/03/03 07:54:50;;;;;;;49.22;21.42;;;2.50;99.90;;;;;;5011658;28;20125;-66
2022/03/03 07:57:17;;;;;;;45.38;20.60;;;2.60;99.90;;;;;;5013025;28;20034;-64
2022/03/03 07:59:48;;;;;;;54.03;21.30;;;2.60;99.90;;;;;;5013074;28;20029;-63
2022/03/03 08:02:22;;;;;;;53.35;21.73;;;2.60;99.90;;;;;;5013242;28;20026;-65
2022/03/03 08:04:52;;;;;;;52.75;22.27;;;2.70;99.90;;;;;;5012856;28;20153;-66
2022/03/03 08:07:19;;;;;;;49.88;21.85;;;2.70;99.90;;;;;;5013216;28;20064;-65
2022/03/03 08:09:49;;;;;;;54.70;22.55;;;2.80;99.90;;;;;;5011511;28;20038;-65
2022/03/03 08:12:16;;;;;;;48.67;22.02;;;2.90;99.90;;;;;;5012891;28;20079;-65
2022/03/03 08:14:42;;;;;;;45.95;20.38;;;3.00;99.90;;;;;;5012722;28;20033;-66
2022/03/03 08:17:12;;;;;;;41.25;17.50;;;3.00;99.90;;;;;;5015823;28;20029;-65
2022/03/03 08:19:38;;;;;;;45.40;19.52;;;2.90;99.90;;;;;;5018573;28;20872;-63
2022/03/03 08:22:05;;;;;;;42.08;18.92;;;2.80;99.90;;;;;;5017303;28;20507;-62
2022/03/03 08:24:34;;;;;;;39.20;17.88;;;2.80;99.90;;;;;;5020001;28;20093;-64
2022/03/03 08:27:01;;;;;;;40.55;16.98;;;2.90;99.90;;;;;;5022871;28;20033;-63
2022/03/03 08:29:27;;;;;;;36.17;15.20;;;3.10;99.90;;;;;;5024169;28;20037;-63
2022/03/03 08:31:57;;;;;;;33.17;15.68;;;3.10;99.90;;;;;;5018515;28;20431;-64
2022/03/03 08:34:56;;;;;;;39.10;16.50;;;3.00;99.90;;;;;;5006066;28;20029;-65
2022/03/03 08:37:33;;;;;;;38.67;16.85;;;3.20;99.90;;;;;;5019637;28;20065;-64
2022/03/03 08:40:00;;;;;;;46.72;17.60;;;3.20;99.90;;;;;;5025223;28;20026;-65
2022/03/03 08:42:32;;;;;;;42.42;17.88;;;3.20;99.90;;;;;;5010760;28;20517;-65
2022/03/03 08:45:02;;;;;;;;;;;3.30;99.90;;;;;;5022452;28;20056;-65
2022/03/03 08:47:29;;;;;;;40.35;15.73;;;3.30;99.90;;;;;;5022886;28;19917;-65
2022/03/03 08:50:02;;;;;;;43.50;17.23;;;3.30;99.90;;;;;;5022536;28;20029;-66
2022/03/03 08:52:28;;;;;;;47.47;17.95;;;3.30;99.90;;;;;;5013851;28;20034;-64
2022/03/03 08:54:55;;;;;;;44.97;17.13;;;3.40;99.90;;;;;;5020596;28;20061;-65
2022/03/03 08:57:20;;;;;;;43.20;18.67;;;3.40;99.90;;;;;;5018045;28;20053;-66
2022/03/03 08:59:46;;;;;;;47.15;18.75;;;3.40;99.90;;;;;;5020963;28;20026;-65
2022/03/03 09:02:16;;;;;;;43.95;19.90;;;3.40;99.90;;;;;;5028196;28;20048;-65
2022/03/03 09:04:45;;;;;;;41.33;18.92;;;3.40;99.90;;;;;;5018697;28;20030;-66
2022/03/03 09:07:12;;;;;;;54.35;19.55;;;3.40;99.90;;;;;;5010217;28;20026;-65
2022/03/03 09:09:37;;;;;;;55.05;19.92;;;3.50;99.90;;;;;;5018734;28;20026;-64
2022/03/03 09:12:04;;;;;;;45.00;19.10;;;3.50;99.90;;;;;;5031648;28;20037;-65
2022/03/03 09:14:30;;;;;;;44.22;18.45;;;3.50;99.90;;;;;;5022926;28;20106;-65
2022/03/03 09:16:56;;;;;;;47.17;20.40;;;3.60;99.90;;;;;;5020517;28;20026;-65
2022/03/03 09:19:22;;;;;;;45.97;19.27;;;3.70;99.90;;;;;;5020077;28;20034;-66
2022/03/03 09:21:48;;;;;;;49.20;19.77;;;3.90;99.90;;;;;;5028922;28;20400;-65
2022/03/03 09:24:13;;;;;;;44.38;19.85;;;3.80;99.90;;;;;;5021596;28;20144;-64
2022/03/03 09:26:39;;;;;;;44.10;19.30;;;3.90;99.90;;;;;;5016293;28;20042;-65
2022/03/03 09:29:05;;;;;;;53.10;20.48;;;4.10;99.90;;;;;;5015877;28;20041;-66
2022/03/03 09:31:31;;;;;;;49.97;21.30;;;4.00;99.90;;;;;;5014383;28;20041;-63
2022/03/03 09:33:57;;;;;;;43.55;18.52;;;4.10;99.90;;;;;;5018259;28;20534;-65
2022/03/03 09:36:22;;;;;;;42.53;18.45;;;4.20;99.90;;;;;;5017432;28;20164;-66
2022/03/03 09:38:48;;;;;;;40.25;15.90;;;4.30;99.90;;;;;;5028471;28;20048;-66
2022/03/03 09:41:14;;;;;;;36.30;14.80;;;4.30;99.90;;;;;;5020840;28;20021;-66
2022/03/03 09:43:41;;;;;;;32.60;15.05;;;4.40;99.90;;;;;;5022247;28;20072;-66
2022/03/03 09:46:07;;;;;;;33.60;13.75;;;4.50;99.90;;;;;;5023195;28;20022;-67
2022/03/03 09:48:34;;;;;;;32.92;14.80;;;4.50;99.90;;;;;;5026117;28;20087;-68
2022/03/03 09:51:00;;;;;;;32.95;13.10;;;4.60;99.90;;;;;;5006309;28;20141;-67
2022/03/03 09:53:25;;;;;;;33.03;15.57;;;4.60;99.90;;;;;;5018272;28;20022;-66
2022/03/03 09:55:51;;;;;;;33.85;15.32;;;4.60;99.90;;;;;;5010708;28;20509;-66
2022/03/03 09:58:17;;;;;;;33.28;15.07;;;4.70;99.90;;;;;;5021896;28;20108;-67
2022/03/03 10:00:44;;;;;;;34.15;15.63;;;4.60;99.90;;;;;;5013264;28;20029;-66
2022/03/03 10:03:13;;;;;;;35.97;15.50;;;4.70;99.90;;;;;;5019028;28;20076;-67
2022/03/03 10:05:47;;;;;;;41.42;15.20;;;4.70;99.90;;;;;;5016852;28;20057;-67
2022/03/03 10:08:20;;;;;;;36.55;13.90;;;4.80;99.90;;;;;;5021961;28;20049;-65
2022/03/03 10:10:49;;;;;;;28.75;14.35;;;4.80;99.90;;;;;;5021990;28;20133;-64
2022/03/03 10:13:17;;;;;;;34.67;12.77;;;4.80;99.90;;;;;;5019272;28;20419;-64
2022/03/03 10:15:51;;;;;;;28.23;12.13;;;4.80;99.90;;;;;;5017380;28;20032;-66
2022/03/03 10:18:18;;;;;;;29.10;11.95;;;4.70;99.90;;;;;;5015329;28;20437;-64
2022/03/03 10:20:48;;;;;;;30.02;12.05;;;4.80;99.90;;;;;;5021347;28;20014;-63
2022/03/03 10:23:14;;;;;;;30.25;12.68;;;4.90;99.90;;;;;;5015989;28;20648;-64
2022/03/03 10:25:42;;;;;;;30.38;12.65;;;5.00;99.90;;;;;;5021300;28;20033;-64
2022/03/03 10:28:12;;;;;;;24.38;12.52;;;5.00;99.90;;;;;;5023244;28;20102;-63
2022/03/03 10:30:50;;;;;;;23.17;11.98;;;5.00;99.90;;;;;;5020794;28;20513;-64
2022/03/03 10:33:18;;;;;;;22.35;11.77;;;4.90;99.90;;;;;;5022408;28;20094;-66
2022/03/03 10:35:58;;;;;;;25.48;11.95;;;4.90;99.90;;;;;;5019870;28;20511;-65
2022/03/03 10:38:24;;;;;;;25.23;10.50;;;5.00;99.90;;;;;;5022724;28;20106;-65
2022/03/03 10:40:49;;;;;;;29.55;14.20;;;5.10;99.90;;;;;;5020671;28;20033;-68
2022/03/03 10:43:15;;;;;;;25.95;10.13;;;5.10;99.90;;;;;;5023640;28;20037;-67
2022/03/03 10:46:00;;;;;;;23.33;10.18;;;5.10;99.90;;;;;;5019707;28;20053;-67
2022/03/03 10:48:28;;;;;;;25.52;11.07;;;5.10;99.90;;;;;;5018459;28;20125;-66
2022/03/03 10:50:55;;;;;;;25.75;9.88;;;5.10;99.90;;;;;;5005211;28;20037;-66
2022/03/03 10:53:25;;;;;;;24.98;10.90;;;5.10;99.90;;;;;;5012856;28;20029;-66
2022/03/03 10:56:07;;;;;;;20.20;10.13;;;5.10;99.90;;;;;;5010803;28;20045;-65
2022/03/03 10:58:53;;;;;;;23.95;11.10;;;5.20;99.90;;;;;;5010628;28;20080;-66
2022/03/03 11:01:24;;;;;;;24.52;11.13;;;5.20;99.90;;;;;;5011116;28;20037;-68
2022/03/03 11:03:51;;;;;;;21.65;10.38;;;5.20;99.90;;;;;;5011767;28;20066;-66
2022/03/03 11:06:18;;;;;;;22.80;9.88;;;5.10;99.90;;;;;;5019538;28;20579;-66
2022/03/03 11:08:46;;;;;;;18.80;9.75;;;5.10;99.90;;;;;;5012513;28;20034;-66
2022/03/03 11:11:12;;;;;;;16.35;9.00;;;5.10;99.90;;;;;;5009491;28;20496;-66
2022/03/03 11:13:39;;;;;;;16.77;9.00;;;5.20;99.90;;;;;;5007919;28;20076;-67
2022/03/03 11:16:06;;;;;;;16.20;8.35;;;5.10;99.90;;;;;;5005355;28;20428;-65
2022/03/03 11:18:33;;;;;;;18.75;9.70;;;5.40;99.90;;;;;;5013318;28;20041;-68
2022/03/03 11:20:59;;;;;;;18.35;8.55;;;5.50;99.90;;;;;;5028720;28;20479;-68
2022/03/03 11:23:35;;;;;;;17.35;8.43;;;5.60;99.90;;;;;;5030925;28;20056;-67
2022/03/03 11:26:01;;;;;;;17.85;9.00;;;5.80;99.90;;;;;;5010863;28;20045;-67
2022/03/03 11:28:35;;;;;;;18.13;9.43;;;5.60;99.90;;;;;;5019026;28;20037;-67
2022/03/03 11:31:22;;;;;;;20.10;8.90;;;5.60;99.90;;;;;;5016745;28;20033;-67
2022/03/03 11:33:47;;;;;;;16.52;8.65;;;5.90;99.90;;;;;;5014236;28;20088;-67
2022/03/03 11:36:20;;;;;;;21.63;9.48;;;6.00;99.90;;;;;;5018159;28;20033;-66
2022/03/03 11:38:52;;;;;;;20.52;9.57;;;6.00;99.90;;;;;;5015501;28;20050;-66
2022/03/03 11:41:20;;;;;;;;;;;6.00;99.90;;;;;;5018237;28;20112;-64
2022/03/03 11:44:05;;;;;;;19.70;9.18;;;6.10;99.90;;;;;;5013574;28;19935;-66
2022/03/03 11:46:43;;;;;;;17.27;9.25;;;6.10;99.90;;;;;;5011621;28;20506;-67
2022/03/03 11:49:10;;;;;;;16.15;8.45;;;6.10;99.90;;;;;;5014859;28;20033;-67
2022/03/03 11:51:36;;;;;;;17.42;9.48;;;6.10;99.90;;;;;;5011768;28;20033;-67
2022/03/03 11:54:09;;;;;;;21.55;10.20;;;6.10;99.90;;;;;;5009675;28;20036;-68
2022/03/03 11:56:55;;;;;;;20.00;9.63;;;6.50;99.90;;;;;;5020044;28;20052;-67
2022/03/03 11:59:38;;;;;;;19.33;10.00;;;6.70;99.90;;;;;;5016470;28;20022;-66
2022/03/03 12:02:03;;;;;;;16.15;8.98;;;7.30;99.90;;;;;;4993786;28;20025;-66
2022/03/03 12:04:29;;;;;;;22.88;9.48;;;7.80;99.90;;;;;;5016909;28;20026;-66
2022/03/03 12:06:55;;;;;;;20.08;9.45;;;8.50;99.90;;;;;;5023350;28;20030;-66
2022/03/03 12:09:26;;;;;;;14.20;8.07;;;9.90;99.90;;;;;;5017307;28;20033;-66
2022/03/03 12:12:17;;;;;;;14.05;8.05;;;10.40;99.90;;;;;;5015753;28;20076;-67
2022/03/03 12:15:00;;;;;;;13.70;7.47;;;9.90;99.90;;;;;;5016045;28;20037;-66
2022/03/03 12:17:39;;;;;;;12.43;7.55;;;10.70;99.90;;;;;;5012025;28;20037;-66
2022/03/03 12:20:23;;;;;;;19.23;7.78;;;10.60;99.90;;;;;;4992030;28;20038;-66
2022/03/03 12:23:31;;;;;;;23.77;8.27;;;10.10;99.90;;;;;;5017748;28;20038;-66
2022/03/03 12:25:58;;;;;;;15.80;8.25;;;9.80;99.90;;;;;;5000072;28;20033;-63
2022/03/03 12:28:25;;;;;;;13.23;7.68;;;9.60;99.90;;;;;;5012255;28;20100;-65
2022/03/03 12:30:52;;;;;;;16.10;7.97;;;8.90;99.90;;;;;;5022286;28;20054;-64
2022/03/03 12:33:30;;;;;;;14.82;8.43;;;8.70;99.90;;;;;;5032537;28;20315;-66
2022/03/03 12:36:05;;;;;;;17.02;8.65;;;9.40;99.90;;;;;;5036452;28;20037;-65
2022/03/03 12:38:33;;;;;;;17.27;7.80;;;10.30;99.90;;;;;;5022631;28;20033;-65
2022/03/03 12:40:58;;;;;;;14.65;7.82;;;11.00;99.90;;;;;;5024244;28;20586;-65
2022/03/03 12:43:24;;;;;;;17.02;7.90;;;10.60;99.90;;;;;;5042880;28;20116;-67